sensor_id;sensor_type;location;lat;lon;timestamp;pressure;altitude;pressure_sealevel;temperature;humidity
84817;BME280;75051;53.104;18.058;2024-02-14T00:00:33;101294.89;;;1.30;78.23
84817;BME280;75051;53.104;18.058;2024-02-14T00:03:20;101295.95;;;1.31;78.30
84817;BME280;75051;53.104;18.058;2024-02-14T00:05:48;101295.58;;;1.33;78.17
84817;BME280;75051;53.104;18.058;2024-02-14T00:08:17;101295.86;;;1.38;78.58
84817;BME280;75051;53.104;18.058;2024-02-14T00:10:44;101295.96;;;1.42;78.32
84817;BME280;75051;53.104;18.058;2024-02-14T00:13:13;101294.09;;;1.43;78.35
84817;BME280;75051;53.104;18.058;2024-02-14T00:15:40;101299.84;;;1.45;78.29
84817;BME280;75051;53.104;18.058;2024-02-14T00:18:07;101302.42;;;1.47;78.47
84817;BME280;75051;53.104;18.058;2024-02-14T00:20:34;101301.75;;;1.49;78.39
84817;BME280;75051;53.104;18.058;2024-02-14T00:23:00;101304.09;;;1.54;78.37
84817;BME280;75051;53.104;18.058;2024-02-14T00:25:28;101304.74;;;1.58;78.24
84817;BME280;75051;53.104;18.058;2024-02-14T00:27:56;101305.91;;;1.62;78.09
84817;BME280;75051;53.104;18.058;2024-02-14T00:30:24;101306.30;;;1.64;78.22
84817;BME280;75051;53.104;18.058;2024-02-14T00:32:52;101307.86;;;1.65;78.21
84817;BME280;75051;53.104;18.058;2024-02-14T00:35:19;101310.10;;;1.67;78.19
84817;BME280;75051;53.104;18.058;2024-02-14T00:37:45;101308.06;;;1.68;78.20
84817;BME280;75051;53.104;18.058;2024-02-14T00:40:12;101309.14;;;1.70;78.24
84817;BME280;75051;53.104;18.058;2024-02-14T00:42:39;101315.71;;;1.74;77.98
84817;BME280;75051;53.104;18.058;2024-02-14T00:45:06;101317.20;;;1.76;78.02
84817;BME280;75051;53.104;18.058;2024-02-14T00:47:36;101315.45;;;1.78;78.08
84817;BME280;75051;53.104;18.058;2024-02-14T00:50:03;101313.45;;;1.78;77.88
84817;BME280;75051;53.104;18.058;2024-02-14T00:52:30;101318.77;;;1.79;78.15
84817;BME280;75051;53.104;18.058;2024-02-14T00:54:57;101314.74;;;1.81;78.14
84817;BME280;75051;53.104;18.058;2024-02-14T00:57:24;101315.10;;;1.83;77.83
84817;BME280;75051;53.104;18.058;2024-02-14T00:59:52;101318.19;;;1.83;77.71
84817;BME280;75051;53.104;18.058;2024-02-14T01:02:19;101316.95;;;1.79;78.01
84817;BME280;75051;53.104;18.058;2024-02-14T01:04:46;101313.20;;;1.77;78.00
84817;BME280;75051;53.104;18.058;2024-02-14T01:07:12;101307.64;;;1.77;78.06
84817;BME280;75051;53.104;18.058;2024-02-14T01:09:40;101310.13;;;1.77;77.80
84817;BME280;75051;53.104;18.058;2024-02-14T01:12:07;101310.61;;;1.78;77.85
84817;BME280;75051;53.104;18.058;2024-02-14T01:14:34;101308.20;;;1.77;77.79
84817;BME280;75051;53.104;18.058;2024-02-14T01:17:00;101309.96;;;1.74;77.85
84817;BME280;75051;53.104;18.058;2024-02-14T01:19:30;101310.30;;;1.69;77.73
84817;BME280;75051;53.104;18.058;2024-02-14T01:21:59;101311.17;;;1.64;78.09
84817;BME280;75051;53.104;18.058;2024-02-14T01:24:25;101311.88;;;1.61;77.91
84817;BME280;75051;53.104;18.058;2024-02-14T01:26:56;101311.38;;;1.58;77.90
84817;BME280;75051;53.104;18.058;2024-02-14T01:29:23;101316.14;;;1.53;77.73
84817;BME280;75051;53.104;18.058;2024-02-14T01:31:50;101321.36;;;1.47;77.96
84817;BME280;75051;53.104;18.058;2024-02-14T01:34:17;101324.42;;;1.40;78.13
84817;BME280;75051;53.104;18.058;2024-02-14T01:36:44;101320.86;;;1.35;77.96
84817;BME280;75051;53.104;18.058;2024-02-14T01:39:11;101322.91;;;1.30;78.26
84817;BME280;75051;53.104;18.058;2024-02-14T01:41:38;101323.34;;;1.29;78.22
84817;BME280;75051;53.104;18.058;2024-02-14T01:44:05;101317.68;;;1.28;78.00
84817;BME280;75051;53.104;18.058;2024-02-14T01:46:31;101317.61;;;1.27;77.94
84817;BME280;75051;53.104;18.058;2024-02-14T01:48:58;101318.97;;;1.25;78.20
84817;BME280;75051;53.104;18.058;2024-02-14T01:51:25;101316.45;;;1.22;78.45
84817;BME280;75051;53.104;18.058;2024-02-14T01:53:54;101318.73;;;1.20;78.46
84817;BME280;75051;53.104;18.058;2024-02-14T01:56:21;101320.23;;;1.18;78.37
84817;BME280;75051;53.104;18.058;2024-02-14T01:58:56;101321.08;;;1.16;78.12
84817;BME280;75051;53.104;18.058;2024-02-14T02:01:23;101321.21;;;1.14;78.44
84817;BME280;75051;53.104;18.058;2024-02-14T02:03:53;101323.94;;;1.13;78.39
84817;BME280;75051;53.104;18.058;2024-02-14T02:06:19;101320.31;;;1.14;78.47
84817;BME280;75051;53.104;18.058;2024-02-14T02:08:47;101322.00;;;1.16;78.51
84817;BME280;75051;53.104;18.058;2024-02-14T02:11:14;101326.70;;;1.15;78.48
84817;BME280;75051;53.104;18.058;2024-02-14T02:13:42;101322.07;;;1.12;78.71
84817;BME280;75051;53.104;18.058;2024-02-14T02:16:10;101318.94;;;1.10;78.62
84817;BME280;75051;53.104;18.058;2024-02-14T02:18:36;101314.88;;;1.10;78.50
84817;BME280;75051;53.104;18.058;2024-02-14T02:21:03;101317.15;;;1.11;78.55
84817;BME280;75051;53.104;18.058;2024-02-14T02:23:34;101319.91;;;1.12;78.36
84817;BME280;75051;53.104;18.058;2024-02-14T02:26:02;101318.33;;;1.12;78.47
84817;BME280;75051;53.104;18.058;2024-02-14T02:28:30;101318.98;;;1.09;78.38
84817;BME280;75051;53.104;18.058;2024-02-14T02:30:57;101322.27;;;1.06;78.52
84817;BME280;75051;53.104;18.058;2024-02-14T02:33:24;101322.89;;;1.05;78.60
84817;BME280;75051;53.104;18.058;2024-02-14T02:35:50;101322.90;;;1.04;78.75
84817;BME280;75051;53.104;18.058;2024-02-14T02:38:17;101322.21;;;1.04;78.79
84817;BME280;75051;53.104;18.058;2024-02-14T02:40:44;101323.19;;;1.00;78.52
84817;BME280;75051;53.104;18.058;2024-02-14T02:43:11;101324.38;;;0.95;78.52
84817;BME280;75051;53.104;18.058;2024-02-14T02:45:38;101325.91;;;0.90;78.57
84817;BME280;75051;53.104;18.058;2024-02-14T02:48:06;101321.46;;;0.90;78.73
84817;BME280;75051;53.104;18.058;2024-02-14T02:50:34;101324.48;;;0.90;78.62
84817;BME280;75051;53.104;18.058;2024-02-14T02:53:01;101324.60;;;0.88;78.51
84817;BME280;75051;53.104;18.058;2024-02-14T02:55:28;101327.69;;;0.84;78.59
84817;BME280;75051;53.104;18.058;2024-02-14T02:57:55;101332.02;;;0.80;78.92
84817;BME280;75051;53.104;18.058;2024-02-14T03:00:22;101329.85;;;0.77;78.82
84817;BME280;75051;53.104;18.058;2024-02-14T03:02:49;101331.88;;;0.76;78.81
84817;BME280;75051;53.104;18.058;2024-02-14T03:05:16;101335.32;;;0.75;78.80
84817;BME280;75051;53.104;18.058;2024-02-14T03:07:46;101333.84;;;0.73;78.95
84817;BME280;75051;53.104;18.058;2024-02-14T03:10:15;101342.27;;;0.70;78.87
84817;BME280;75051;53.104;18.058;2024-02-14T03:12:48;101345.82;;;0.64;78.89
84817;BME280;75051;53.104;18.058;2024-02-14T03:15:15;101346.89;;;0.61;79.13
84817;BME280;75051;53.104;18.058;2024-02-14T03:17:42;101347.66;;;0.63;79.06
84817;BME280;75051;53.104;18.058;2024-02-14T03:20:10;101344.94;;;0.64;79.04
84817;BME280;75051;53.104;18.058;2024-02-14T03:22:41;101349.18;;;0.64;79.05
84817;BME280;75051;53.104;18.058;2024-02-14T03:25:18;101349.16;;;0.64;79.21
84817;BME280;75051;53.104;18.058;2024-02-14T03:27:48;101346.80;;;0.65;79.26
84817;BME280;75051;53.104;18.058;2024-02-14T03:30:20;101345.02;;;0.68;78.98
84817;BME280;75051;53.104;18.058;2024-02-14T03:32:46;101348.88;;;0.69;78.88
84817;BME280;75051;53.104;18.058;2024-02-14T03:35:13;101351.48;;;0.68;78.58
84817;BME280;75051;53.104;18.058;2024-02-14T03:37:45;101348.10;;;0.65;78.97
84817;BME280;75051;53.104;18.058;2024-02-14T03:40:14;101351.40;;;0.63;78.86
84817;BME280;75051;53.104;18.058;2024-02-14T03:42:40;101355.15;;;0.60;78.83
84817;BME280;75051;53.104;18.058;2024-02-14T03:45:11;101352.19;;;0.59;78.79
84817;BME280;75051;53.104;18.058;2024-02-14T03:47:38;101355.48;;;0.61;79.02
84817;BME280;75051;53.104;18.058;2024-02-14T03:50:07;101361.33;;;0.58;79.22
84817;BME280;75051;53.104;18.058;2024-02-14T03:52:34;101361.98;;;0.56;79.27
84817;BME280;75051;53.104;18.058;2024-02-14T03:55:01;101359.98;;;0.54;79.15
84817;BME280;75051;53.104;18.058;2024-02-14T03:57:29;101358.71;;;0.54;79.14
84817;BME280;75051;53.104;18.058;2024-02-14T04:00:00;101360.59;;;0.52;78.87
84817;BME280;75051;53.104;18.058;2024-02-14T04:02:30;101360.00;;;0.47;78.83
84817;BME280;75051;53.104;18.058;2024-02-14T04:04:58;101360.77;;;0.40;79.04
84817;BME280;75051;53.104;18.058;2024-02-14T04:07:24;101359.85;;;0.34;79.12
84817;BME280;75051;53.104;18.058;2024-02-14T04:09:51;101365.19;;;0.31;79.28
84817;BME280;75051;53.104;18.058;2024-02-14T04:12:20;101362.58;;;0.30;79.23
84817;BME280;75051;53.104;18.058;2024-02-14T04:14:47;101362.01;;;0.27;79.02
84817;BME280;75051;53.104;18.058;2024-02-14T04:17:13;101362.70;;;0.25;79.37
84817;BME280;75051;53.104;18.058;2024-02-14T04:19:41;101360.35;;;0.22;79.65
84817;BME280;75051;53.104;18.058;2024-02-14T04:22:07;101359.15;;;0.18;79.60
84817;BME280;75051;53.104;18.058;2024-02-14T04:24:34;101361.79;;;0.19;79.50
84817;BME280;75051;53.104;18.058;2024-02-14T04:27:01;101360.39;;;0.21;79.66
84817;BME280;75051;53.104;18.058;2024-02-14T04:29:31;101355.73;;;0.25;79.58
84817;BME280;75051;53.104;18.058;2024-02-14T04:32:03;101356.69;;;0.24;79.86
84817;BME280;75051;53.104;18.058;2024-02-14T04:34:31;101356.08;;;0.25;79.66
84817;BME280;75051;53.104;18.058;2024-02-14T04:36:58;101355.52;;;0.25;79.57
84817;BME280;75051;53.104;18.058;2024-02-14T04:39:25;101353.80;;;0.28;79.40
84817;BME280;75051;53.104;18.058;2024-02-14T04:41:52;101356.38;;;0.29;79.54
84817;BME280;75051;53.104;18.058;2024-02-14T04:44:20;101356.41;;;0.29;79.60
84817;BME280;75051;53.104;18.058;2024-02-14T04:46:47;101353.90;;;0.26;79.64
84817;BME280;75051;53.104;18.058;2024-02-14T04:49:13;101356.06;;;0.22;79.69
84817;BME280;75051;53.104;18.058;2024-02-14T04:51:41;101348.90;;;0.20;79.77
84817;BME280;75051;53.104;18.058;2024-02-14T04:54:08;101347.43;;;0.21;79.84
84817;BME280;75051;53.104;18.058;2024-02-14T04:56:36;101345.92;;;0.22;79.80
84817;BME280;75051;53.104;18.058;2024-02-14T04:59:04;101351.66;;;0.21;80.34
84817;BME280;75051;53.104;18.058;2024-02-14T05:01:31;101357.15;;;0.19;79.96
84817;BME280;75051;53.104;18.058;2024-02-14T05:03:58;101360.14;;;0.17;79.90
84817;BME280;75051;53.104;18.058;2024-02-14T05:06:27;101365.98;;;0.17;79.96
84817;BME280;75051;53.104;18.058;2024-02-14T05:08:53;101360.33;;;0.16;80.08
84817;BME280;75051;53.104;18.058;2024-02-14T05:11:20;101358.45;;;0.15;79.96
84817;BME280;75051;53.104;18.058;2024-02-14T05:13:47;101356.90;;;0.14;80.15
84817;BME280;75051;53.104;18.058;2024-02-14T05:16:13;101352.66;;;0.13;80.14
84817;BME280;75051;53.104;18.058;2024-02-14T05:18:44;101357.73;;;0.15;80.12
84817;BME280;75051;53.104;18.058;2024-02-14T05:21:10;101348.71;;;0.17;79.93
84817;BME280;75051;53.104;18.058;2024-02-14T05:23:38;101354.36;;;0.18;79.93
84817;BME280;75051;53.104;18.058;2024-02-14T05:26:05;101353.00;;;0.17;79.91
84817;BME280;75051;53.104;18.058;2024-02-14T05:28:31;101353.64;;;0.15;80.00
84817;BME280;75051;53.104;18.058;2024-02-14T05:30:59;101353.64;;;0.15;80.23
84817;BME280;75051;53.104;18.058;2024-02-14T05:33:26;101353.91;;;0.16;79.74
84817;BME280;75051;53.104;18.058;2024-02-14T05:35:53;101355.89;;;0.16;79.97
84817;BME280;75051;53.104;18.058;2024-02-14T05:38:20;101357.66;;;0.13;79.92
84817;BME280;75051;53.104;18.058;2024-02-14T05:40:47;101362.45;;;0.11;80.06
84817;BME280;75051;53.104;18.058;2024-02-14T05:43:15;101361.46;;;0.09;80.09
84817;BME280;75051;53.104;18.058;2024-02-14T05:45:42;101358.02;;;0.10;80.10
84817;BME280;75051;53.104;18.058;2024-02-14T05:48:09;101358.76;;;0.10;80.23
84817;BME280;75051;53.104;18.058;2024-02-14T05:50:36;101362.73;;;0.08;80.28
84817;BME280;75051;53.104;18.058;2024-02-14T05:53:03;101361.49;;;0.05;80.20
84817;BME280;75051;53.104;18.058;2024-02-14T05:55:30;101366.37;;;0.04;80.28
84817;BME280;75051;53.104;18.058;2024-02-14T05:57:58;101364.12;;;0.06;80.09
84817;BME280;75051;53.104;18.058;2024-02-14T06:00:25;101368.99;;;0.08;79.86
84817;BME280;75051;53.104;18.058;2024-02-14T06:02:55;101370.41;;;0.08;80.04
84817;BME280;75051;53.104;18.058;2024-02-14T06:05:22;101374.17;;;0.08;80.06
84817;BME280;75051;53.104;18.058;2024-02-14T06:07:50;101374.86;;;0.05;80.24
84817;BME280;75051;53.104;18.058;2024-02-14T06:10:17;101377.68;;;0.06;80.18
84817;BME280;75051;53.104;18.058;2024-02-14T06:12:45;101376.55;;;0.07;80.10
84817;BME280;75051;53.104;18.058;2024-02-14T06:15:12;101377.34;;;0.08;80.18
84817;BME280;75051;53.104;18.058;2024-02-14T06:17:39;101379.71;;;0.07;80.00
84817;BME280;75051;53.104;18.058;2024-02-14T06:20:06;101379.97;;;0.06;80.14
84817;BME280;75051;53.104;18.058;2024-02-14T06:22:35;101384.21;;;0.07;80.00
84817;BME280;75051;53.104;18.058;2024-02-14T06:25:03;101383.52;;;0.07;80.12
84817;BME280;75051;53.104;18.058;2024-02-14T06:27:33;101380.35;;;0.09;80.00
84817;BME280;75051;53.104;18.058;2024-02-14T06:30:00;101381.46;;;0.11;79.93
84817;BME280;75051;53.104;18.058;2024-02-14T06:32:27;101382.59;;;0.13;79.90
84817;BME280;75051;53.104;18.058;2024-02-14T06:34:53;101384.45;;;0.15;79.91
84817;BME280;75051;53.104;18.058;2024-02-14T06:37:20;101388.95;;;0.18;79.95
84817;BME280;75051;53.104;18.058;2024-02-14T06:39:48;101392.21;;;0.19;79.82
84817;BME280;75051;53.104;18.058;2024-02-14T06:42:16;101394.48;;;0.23;79.85
84817;BME280;75051;53.104;18.058;2024-02-14T06:44:44;101392.45;;;0.28;79.94
84817;BME280;75051;53.104;18.058;2024-02-14T06:47:10;101392.83;;;0.31;79.54
84817;BME280;75051;53.104;18.058;2024-02-14T06:49:37;101394.10;;;0.33;79.88
84817;BME280;75051;53.104;18.058;2024-02-14T06:52:06;101395.24;;;0.35;79.82
84817;BME280;75051;53.104;18.058;2024-02-14T06:54:32;101396.83;;;0.42;79.79
84817;BME280;75051;53.104;18.058;2024-02-14T06:56:59;101388.23;;;0.52;79.54
84817;BME280;75051;53.104;18.058;2024-02-14T06:59:27;101386.46;;;0.58;79.60
84817;BME280;75051;53.104;18.058;2024-02-14T07:01:54;101389.83;;;0.65;79.31
84817;BME280;75051;53.104;18.058;2024-02-14T07:04:22;101394.02;;;0.72;79.26
84817;BME280;75051;53.104;18.058;2024-02-14T07:06:53;101394.59;;;0.78;79.33
84817;BME280;75051;53.104;18.058;2024-02-14T07:09:21;101397.91;;;0.97;79.38
84817;BME280;75051;53.104;18.058;2024-02-14T07:11:48;101396.52;;;1.35;79.13
84817;BME280;75051;53.104;18.058;2024-02-14T07:14:16;101394.15;;;1.85;78.36
84817;BME280;75051;53.104;18.058;2024-02-14T07:16:43;101394.90;;;2.34;76.87
84817;BME280;75051;53.104;18.058;2024-02-14T07:19:10;101391.64;;;2.86;76.27
84817;BME280;75051;53.104;18.058;2024-02-14T07:21:36;101388.89;;;3.47;75.65
84817;BME280;75051;53.104;18.058;2024-02-14T07:24:05;101388.44;;;4.04;73.56
84817;BME280;75051;53.104;18.058;2024-02-14T07:26:34;101384.61;;;4.52;72.98
84817;BME280;75051;53.104;18.058;2024-02-14T07:29:01;101383.13;;;5.05;71.98
84817;BME280;75051;53.104;18.058;2024-02-14T07:31:31;101387.40;;;5.58;70.86
84817;BME280;75051;53.104;18.058;2024-02-14T07:34:00;101384.33;;;6.15;69.64
84817;BME280;75051;53.104;18.058;2024-02-14T07:36:29;101384.04;;;6.56;68.53
84817;BME280;75051;53.104;18.058;2024-02-14T07:38:57;101390.05;;;6.85;67.79
84817;BME280;75051;53.104;18.058;2024-02-14T07:41:24;101386.55;;;7.02;66.77
84817;BME280;75051;53.104;18.058;2024-02-14T07:43:52;101385.48;;;7.14;66.89
84817;BME280;75051;53.104;18.058;2024-02-14T07:46:20;101383.00;;;7.21;65.68
84817;BME280;75051;53.104;18.058;2024-02-14T07:48:48;101380.66;;;7.28;65.84
84817;BME280;75051;53.104;18.058;2024-02-14T07:51:15;101381.98;;;7.44;65.76
84817;BME280;75051;53.104;18.058;2024-02-14T07:53:43;101379.95;;;7.66;65.36
84817;BME280;75051;53.104;18.058;2024-02-14T07:56:10;101368.98;;;7.88;64.42
84817;BME280;75051;53.104;18.058;2024-02-14T07:58:37;101367.44;;;7.99;63.32
84817;BME280;75051;53.104;18.058;2024-02-14T08:01:05;101368.17;;;8.15;63.09
84817;BME280;75051;53.104;18.058;2024-02-14T08:03:32;101365.94;;;8.30;61.50
84817;BME280;75051;53.104;18.058;2024-02-14T08:05:59;101365.59;;;8.50;61.84
84817;BME280;75051;53.104;18.058;2024-02-14T08:08:28;101365.24;;;8.60;60.81
84817;BME280;75051;53.104;18.058;2024-02-14T08:10:58;101365.64;;;8.59;59.85
84817;BME280;75051;53.104;18.058;2024-02-14T08:13:25;101360.48;;;8.46;59.65
84817;BME280;75051;53.104;18.058;2024-02-14T08:15:51;101358.64;;;8.49;60.67
84817;BME280;75051;53.104;18.058;2024-02-14T08:18:24;101359.67;;;8.75;60.66
84817;BME280;75051;53.104;18.058;2024-02-14T08:20:51;101357.73;;;9.01;58.60
84817;BME280;75051;53.104;18.058;2024-02-14T08:23:18;101359.27;;;9.16;58.20
84817;BME280;75051;53.104;18.058;2024-02-14T08:25:46;101359.62;;;9.27;57.50
84817;BME280;75051;53.104;18.058;2024-02-14T08:28:14;101359.89;;;9.59;57.62
84817;BME280;75051;53.104;18.058;2024-02-14T08:30:42;101360.14;;;9.60;57.41
84817;BME280;75051;53.104;18.058;2024-02-14T08:33:09;101358.30;;;9.36;57.86
84817;BME280;75051;53.104;18.058;2024-02-14T08:35:38;101359.71;;;9.13;58.07
84817;BME280;75051;53.104;18.058;2024-02-14T08:38:06;101357.77;;;8.68;57.59
84817;BME280;75051;53.104;18.058;2024-02-14T08:40:34;101359.02;;;8.22;58.44
84817;BME280;75051;53.104;18.058;2024-02-14T08:43:01;101357.78;;;7.77;58.35
84817;BME280;75051;53.104;18.058;2024-02-14T08:45:28;101359.15;;;7.37;59.49
84817;BME280;75051;53.104;18.058;2024-02-14T08:47:56;101362.58;;;7.16;60.52
84817;BME280;75051;53.104;18.058;2024-02-14T08:50:23;101362.70;;;7.09;60.81
84817;BME280;75051;53.104;18.058;2024-02-14T08:52:50;101366.23;;;7.22;59.84
84817;BME280;75051;53.104;18.058;2024-02-14T08:55:21;101369.26;;;7.25;60.21
84817;BME280;75051;53.104;18.058;2024-02-14T08:57:47;101364.77;;;7.31;60.03
84817;BME280;75051;53.104;18.058;2024-02-14T09:00:14;101365.29;;;7.29;59.95
84817;BME280;75051;53.104;18.058;2024-02-14T09:02:46;101364.89;;;7.21;60.34
84817;BME280;75051;53.104;18.058;2024-02-14T09:05:14;101366.30;;;7.13;60.37
84817;BME280;75051;53.104;18.058;2024-02-14T09:07:40;101360.83;;;7.03;60.21
84817;BME280;75051;53.104;18.058;2024-02-14T09:10:08;101366.10;;;6.92;60.90
84817;BME280;75051;53.104;18.058;2024-02-14T09:12:37;101366.95;;;6.99;60.53
84817;BME280;75051;53.104;18.058;2024-02-14T09:15:04;101367.74;;;6.92;60.44
84817;BME280;75051;53.104;18.058;2024-02-14T09:17:31;101366.52;;;6.85;60.76
84817;BME280;75051;53.104;18.058;2024-02-14T09:19:58;101365.56;;;7.17;60.18
84817;BME280;75051;53.104;18.058;2024-02-14T09:22:26;101364.41;;;7.64;60.19
84817;BME280;75051;53.104;18.058;2024-02-14T09:24:53;101369.02;;;8.23;58.99
84817;BME280;75051;53.104;18.058;2024-02-14T09:27:20;101364.41;;;8.45;56.96
84817;BME280;75051;53.104;18.058;2024-02-14T09:29:47;101370.86;;;8.58;57.66
84817;BME280;75051;53.104;18.058;2024-02-14T09:32:13;101373.80;;;8.90;57.12
84817;BME280;75051;53.104;18.058;2024-02-14T09:34:40;101371.30;;;9.29;57.29
84817;BME280;75051;53.104;18.058;2024-02-14T09:37:07;101374.04;;;9.68;56.28
84817;BME280;75051;53.104;18.058;2024-02-14T09:39:33;101364.77;;;9.95;54.51
84817;BME280;75051;53.104;18.058;2024-02-14T09:42:08;101366.05;;;9.96;54.59
84817;BME280;75051;53.104;18.058;2024-02-14T09:44:37;101376.72;;;9.81;54.42
84817;BME280;75051;53.104;18.058;2024-02-14T09:47:05;101371.27;;;9.66;55.25
84817;BME280;75051;53.104;18.058;2024-02-14T09:49:35;101371.98;;;9.59;54.31
84817;BME280;75051;53.104;18.058;2024-02-14T09:52:03;101366.85;;;9.39;55.15
84817;BME280;75051;53.104;18.058;2024-02-14T09:54:33;101364.29;;;9.72;55.12
84817;BME280;75051;53.104;18.058;2024-02-14T09:57:01;101363.69;;;10.21;54.12
84817;BME280;75051;53.104;18.058;2024-02-14T09:59:29;101364.14;;;10.26;53.30
84817;BME280;75051;53.104;18.058;2024-02-14T10:01:59;101361.23;;;10.22;52.61
84817;BME280;75051;53.104;18.058;2024-02-14T10:04:25;101356.16;;;9.97;53.40
84817;BME280;75051;53.104;18.058;2024-02-14T10:06:52;101355.55;;;9.90;53.46
84817;BME280;75051;53.104;18.058;2024-02-14T10:09:22;101359.98;;;9.99;53.33
84817;BME280;75051;53.104;18.058;2024-02-14T10:11:49;101359.26;;;9.75;52.51
84817;BME280;75051;53.104;18.058;2024-02-14T10:14:16;101360.16;;;9.64;52.32
84817;BME280;75051;53.104;18.058;2024-02-14T10:16:42;101355.98;;;9.69;52.40
84817;BME280;75051;53.104;18.058;2024-02-14T10:19:18;101350.91;;;10.18;52.79
84817;BME280;75051;53.104;18.058;2024-02-14T10:21:59;101349.87;;;10.72;51.53
84817;BME280;75051;53.104;18.058;2024-02-14T10:24:27;101342.30;;;10.95;48.91
84817;BME280;75051;53.104;18.058;2024-02-14T10:26:55;101337.91;;;10.81;50.79
84817;BME280;75051;53.104;18.058;2024-02-14T10:29:24;101339.18;;;10.66;50.36
84817;BME280;75051;53.104;18.058;2024-02-14T10:31:52;101336.55;;;10.46;51.08
84817;BME280;75051;53.104;18.058;2024-02-14T10:34:24;101334.58;;;10.29;51.96
84817;BME280;75051;53.104;18.058;2024-02-14T10:36:56;101334.96;;;10.20;52.22
84817;BME280;75051;53.104;18.058;2024-02-14T10:39:25;101336.65;;;10.06;52.16
84817;BME280;75051;53.104;18.058;2024-02-14T10:41:54;101332.20;;;9.79;52.22
84817;BME280;75051;53.104;18.058;2024-02-14T10:44:25;101333.17;;;9.51;52.48
84817;BME280;75051;53.104;18.058;2024-02-14T10:46:54;101327.45;;;9.25;53.24
84817;BME280;75051;53.104;18.058;2024-02-14T10:49:25;101323.98;;;9.01;53.36
84817;BME280;75051;53.104;18.058;2024-02-14T10:51:53;101323.04;;;8.86;53.83
84817;BME280;75051;53.104;18.058;2024-02-14T10:54:21;101320.02;;;8.89;54.38
84817;BME280;75051;53.104;18.058;2024-02-14T10:56:49;101318.81;;;9.08;53.83
84817;BME280;75051;53.104;18.058;2024-02-14T10:59:22;101316.36;;;9.13;53.50
84817;BME280;75051;53.104;18.058;2024-02-14T11:01:49;101314.58;;;9.11;53.96
84817;BME280;75051;53.104;18.058;2024-02-14T11:04:17;101309.71;;;9.03;53.55
84817;BME280;75051;53.104;18.058;2024-02-14T11:06:48;101307.86;;;8.96;54.21
84817;BME280;75051;53.104;18.058;2024-02-14T11:09:16;101309.27;;;8.98;54.27
84817;BME280;75051;53.104;18.058;2024-02-14T11:11:43;101305.84;;;8.92;54.42
84817;BME280;75051;53.104;18.058;2024-02-14T11:14:14;101306.35;;;8.94;54.77
84817;BME280;75051;53.104;18.058;2024-02-14T11:16:45;101301.88;;;8.98;54.51
84817;BME280;75051;53.104;18.058;2024-02-14T11:19:14;101297.70;;;9.12;54.70
84817;BME280;75051;53.104;18.058;2024-02-14T11:22:18;101295.98;;;9.23;54.35
84817;BME280;75051;53.104;18.058;2024-02-14T11:24:46;101296.15;;;9.23;54.13
84817;BME280;75051;53.104;18.058;2024-02-14T11:27:14;101292.41;;;9.28;53.98
84817;BME280;75051;53.104;18.058;2024-02-14T11:29:51;101284.92;;;9.34;53.68
84817;BME280;75051;53.104;18.058;2024-02-14T11:32:21;101283.00;;;9.31;53.96
84817;BME280;75051;53.104;18.058;2024-02-14T11:34:55;101278.79;;;9.29;54.08
84817;BME280;75051;53.104;18.058;2024-02-14T11:37:29;101281.94;;;9.23;53.47
84817;BME280;75051;53.104;18.058;2024-02-14T11:39:59;101277.64;;;9.17;53.62
84817;BME280;75051;53.104;18.058;2024-02-14T11:42:25;101273.54;;;9.16;53.31
84817;BME280;75051;53.104;18.058;2024-02-14T11:44:52;101271.77;;;9.10;52.76
84817;BME280;75051;53.104;18.058;2024-02-14T11:47:20;101271.89;;;9.09;53.32
84817;BME280;75051;53.104;18.058;2024-02-14T11:49:47;101266.25;;;9.00;53.44
84817;BME280;75051;53.104;18.058;2024-02-14T11:52:14;101264.58;;;8.95;54.18
84817;BME280;75051;53.104;18.058;2024-02-14T11:54:46;101267.03;;;8.84;53.91
84817;BME280;75051;53.104;18.058;2024-02-14T11:57:18;101261.61;;;8.67;54.37
84817;BME280;75051;53.104;18.058;2024-02-14T11:59:52;101259.61;;;8.56;54.82
84817;BME280;75051;53.104;18.058;2024-02-14T12:02:20;101263.38;;;8.50;55.03
84817;BME280;75051;53.104;18.058;2024-02-14T12:04:48;101258.91;;;8.41;55.20
84817;BME280;75051;53.104;18.058;2024-02-14T12:07:17;101259.80;;;8.38;55.48
84817;BME280;75051;53.104;18.058;2024-02-14T12:09:45;101260.29;;;8.33;55.53
84817;BME280;75051;53.104;18.058;2024-02-14T12:12:12;101259.86;;;8.31;55.95
84817;BME280;75051;53.104;18.058;2024-02-14T12:14:39;101255.92;;;8.29;55.99
84817;BME280;75051;53.104;18.058;2024-02-14T12:17:06;101259.80;;;8.28;56.18
84817;BME280;75051;53.104;18.058;2024-02-14T12:19:35;101263.13;;;8.28;56.08
84817;BME280;75051;53.104;18.058;2024-02-14T12:22:09;101258.27;;;8.31;56.06
84817;BME280;75051;53.104;18.058;2024-02-14T12:24:56;101251.90;;;8.39;56.38
84817;BME280;75051;53.104;18.058;2024-02-14T12:27:24;101252.96;;;8.43;55.45
84817;BME280;75051;53.104;18.058;2024-02-14T12:29:51;101249.39;;;8.46;56.07
84817;BME280;75051;53.104;18.058;2024-02-14T12:32:37;101243.55;;;8.59;56.51
84817;BME280;75051;53.104;18.058;2024-02-14T12:35:08;101243.28;;;8.74;56.14
84817;BME280;75051;53.104;18.058;2024-02-14T12:37:38;101243.73;;;8.82;55.51
84817;BME280;75051;53.104;18.058;2024-02-14T12:40:06;101235.63;;;8.78;55.23
84817;BME280;75051;53.104;18.058;2024-02-14T12:42:33;101235.31;;;8.74;55.05
84817;BME280;75051;53.104;18.058;2024-02-14T12:45:02;101229.59;;;8.63;55.12
84817;BME280;75051;53.104;18.058;2024-02-14T12:47:29;101232.23;;;8.53;54.70
84817;BME280;75051;53.104;18.058;2024-02-14T12:49:59;101228.81;;;8.41;55.33
84817;BME280;75051;53.104;18.058;2024-02-14T12:52:26;101226.39;;;8.34;55.27
84817;BME280;75051;53.104;18.058;2024-02-14T12:54:54;101231.73;;;8.25;54.99